Time;durP1;ratioP1;P1;durP2;ratioP2;P2;SDS_P1;SDS_P2;PMS_P1;PMS_P2;Temp;Humidity;BMP_temperature;BMP_pressure;BME280_temperature;BME280_humidity;BME280_pressure;Samples;Min_cycle;Max_cycle;Signal;HPM_P1;HPM_P2
2022/09/07 00:00:35;;;;;;;4.55;2.08;;;18.50;62.80;;;;;;4921488;28;20034;-69
2022/09/07 00:03:01;;;;;;;3.70;2.25;;;18.50;62.90;;;;;;4920602;29;20102;-70
2022/09/07 00:05:27;;;;;;;3.03;2.00;;;18.50;63.20;;;;;;4919630;29;20063;-70
2022/09/07 00:07:54;;;;;;;2.83;2.17;;;18.40;63.50;;;;;;4919266;29;20074;-70
2022/09/07 00:10:20;;;;;;;3.42;2.13;;;18.50;63.70;;;;;;4921191;29;20028;-69
2022/09/07 00:12:46;;;;;;;2.90;2.10;;;18.50;63.60;;;;;;4917269;29;20769;-70
2022/09/07 00:15:12;;;;;;;3.88;2.40;;;18.50;63.50;;;;;;4923833;29;20040;-70
2022/09/07 00:17:38;;;;;;;6.05;2.42;;;18.40;62.90;;;;;;4923254;29;20039;-68
2022/09/07 00:20:06;;;;;;;7.13;2.15;;;18.40;63.60;;;;;;4921041;29;20027;-70
2022/09/07 00:22:32;;;;;;;2.83;1.95;;;18.40;62.20;;;;;;4921260;29;20871;-68
2022/09/07 00:24:57;;;;;;;4.25;2.20;;;18.40;63.30;;;;;;4918796;29;20074;-71
2022/09/07 00:27:23;;;;;;;4.90;2.40;;;18.30;62.40;;;;;;4919562;29;20039;-69
2022/09/07 00:29:49;;;;;;;4.28;2.35;;;18.30;63.20;;;;;;4916125;29;20448;-70
2022/09/07 00:32:15;;;;;;;4.25;2.03;;;18.20;63.20;;;;;;4922559;29;20042;-70
2022/09/07 00:34:41;;;;;;;2.53;1.88;;;18.20;63.30;;;;;;4927404;29;20122;-69
2022/09/07 00:37:07;;;;;;;3.08;2.28;;;18.20;63.70;;;;;;4925470;29;20036;-70
2022/09/07 00:39:33;;;;;;;2.75;1.80;;;18.20;63.70;;;;;;4925527;28;20031;-70
2022/09/07 00:41:59;;;;;;;2.45;1.70;;;18.20;64.00;;;;;;4922463;29;20044;-69
2022/09/07 00:44:43;;;;;;;3.08;1.77;;;18.20;63.60;;;;;;4923477;29;20309;-69
2022/09/07 00:47:22;;;;;;;6.65;3.03;;;18.20;63.70;;;;;;4919808;29;20500;-68
2022/09/07 00:49:52;;;;;;;3.20;2.00;;;18.20;62.60;;;;;;4918582;29;20043;-68
2022/09/07 00:52:19;;;;;;;4.20;1.95;;;18.10;63.50;;;;;;4926233;29;20044;-70
2022/09/07 00:54:49;;;;;;;4.13;1.77;;;18.00;63.10;;;;;;4927459;29;20035;-68
2022/09/07 00:57:15;;;;;;;3.22;1.95;;;18.10;63.60;;;;;;4924240;29;20048;-68
2022/09/07 00:59:45;;;;;;;2.35;1.92;;;17.90;62.60;;;;;;4924285;29;20026;-69
2022/09/07 01:02:13;;;;;;;3.10;1.77;;;17.90;62.60;;;;;;4921043;29;20043;-70
2022/09/07 01:04:40;;;;;;;4.15;2.22;;;17.80;62.70;;;;;;4924533;29;20044;-68
2022/09/07 01:07:06;;;;;;;4.45;1.83;;;17.80;63.60;;;;;;4922205;29;20044;-69
2022/09/07 01:09:33;;;;;;;3.25;2.10;;;17.80;62.50;;;;;;4920451;29;20816;-70
2022/09/07 01:12:00;;;;;;;3.47;2.05;;;17.80;62.50;;;;;;4926215;29;20516;-68
2022/09/07 01:14:32;;;;;;;3.13;1.98;;;17.80;62.30;;;;;;4925701;29;20035;-69
2022/09/07 01:17:00;;;;;;;3.15;2.13;;;17.80;62.60;;;;;;4923562;29;20045;-70
2022/09/07 01:19:45;;;;;;;3.15;2.00;;;17.80;63.40;;;;;;4920093;29;20600;-69
2022/09/07 01:22:26;;;;;;;3.20;1.80;;;17.80;63.00;;;;;;4923022;29;20122;-71
2022/09/07 01:24:55;;;;;;;2.85;1.80;;;17.80;63.60;;;;;;4919246;29;20028;-71
2022/09/07 01:27:42;;;;;;;4.63;1.83;;;17.70;64.10;;;;;;4919557;29;20150;-69
2022/09/07 01:30:15;;;;;;;4.30;1.90;;;17.70;64.20;;;;;;4924425;29;20070;-70
2022/09/07 01:33:13;;;;;;;3.35;1.90;;;17.70;64.00;;;;;;4925285;29;20042;-70
2022/09/07 01:35:58;;;;;;;2.78;1.92;;;17.60;64.40;;;;;;4923538;29;20036;-71
2022/09/07 01:38:51;;;;;;;5.22;2.05;;;17.60;64.40;;;;;;4923117;29;20035;-70
2022/09/07 01:41:23;;;;;;;2.65;1.70;;;17.60;64.20;;;;;;4920522;29;20086;-70
2022/09/07 01:44:10;;;;;;;2.78;1.80;;;17.60;64.30;;;;;;4918372;29;20031;-71
2022/09/07 01:47:26;;;;;;;3.03;1.83;;;17.60;64.10;;;;;;4919877;29;20027;-71
2022/09/07 01:50:16;;;;;;;2.00;1.63;;;17.70;64.20;;;;;;4904806;29;20032;-70
2022/09/07 01:52:49;;;;;;;2.97;1.55;;;17.60;64.60;;;;;;4918725;29;20648;-70
2022/09/07 01:55:25;;;;;;;3.20;1.70;;;17.60;64.90;;;;;;4922389;29;20079;-70
2022/09/07 01:58:04;;;;;;;3.75;1.95;;;17.50;63.40;;;;;;4921252;29;20496;-69
2022/09/07 02:00:33;;;;;;;1.92;1.63;;;17.50;63.80;;;;;;4919168;29;20063;-69
2022/09/07 02:03:06;;;;;;;3.88;1.85;;;17.40;64.30;;;;;;4917681;29;20525;-69
2022/09/07 02:05:40;;;;;;;2.08;1.70;;;17.40;64.40;;;;;;4919185;29;20040;-69
2022/09/07 02:08:14;;;;;;;2.53;1.80;;;17.40;64.10;;;;;;4923651;29;20677;-70
2022/09/07 02:10:49;;;;;;;2.25;1.50;;;17.30;64.20;;;;;;4925808;29;20039;-69
2022/09/07 02:13:38;;;;;;;2.72;1.80;;;17.30;64.10;;;;;;4921936;29;20095;-68
2022/09/07 02:16:12;;;;;;;3.47;1.75;;;17.30;64.80;;;;;;4921228;29;20043;-69
2022/09/07 02:18:44;;;;;;;2.35;1.70;;;17.30;64.80;;;;;;4920095;29;20119;-70
2022/09/07 02:21:11;;;;;;;4.55;2.10;;;17.20;65.00;;;;;;4919902;28;20046;-70
2022/09/07 02:23:45;;;;;;;2.47;1.67;;;17.20;64.40;;;;;;4918402;29;20038;-69
2022/09/07 02:26:17;;;;;;;4.65;1.75;;;17.10;64.80;;;;;;4924573;29;20040;-69
2022/09/07 02:28:43;;;;;;;3.22;1.60;;;17.10;65.20;;;;;;4924697;29;20115;-69
2022/09/07 02:31:08;;;;;;;2.45;1.52;;;17.10;65.40;;;;;;4922050;29;20046;-69
2022/09/07 02:33:34;;;;;;;3.15;1.75;;;17.10;65.20;;;;;;4922668;29;20039;-69
2022/09/07 02:36:03;;;;;;;2.38;1.42;;;17.00;65.50;;;;;;4918947;29;20039;-70
2022/09/07 02:38:29;;;;;;;2.20;1.70;;;17.00;65.60;;;;;;4920481;29;20701;-69
2022/09/07 02:40:57;;;;;;;2.30;1.60;;;17.00;66.00;;;;;;4916755;29;20032;-69
2022/09/07 02:43:24;;;;;;;3.08;1.50;;;17.00;66.20;;;;;;4918124;29;20040;-69
2022/09/07 02:46:15;;;;;;;1.92;1.70;;;16.90;66.00;;;;;;4925343;29;20031;-70
2022/09/07 02:48:52;;;;;;;3.53;1.67;;;16.90;66.20;;;;;;4919539;29;20039;-70
2022/09/07 02:51:49;;;;;;;2.45;1.50;;;16.80;66.60;;;;;;4921372;29;20683;-70
2022/09/07 02:54:41;;;;;;;4.22;1.75;;;16.90;66.40;;;;;;4919526;29;20047;-70
2022/09/07 02:57:13;;;;;;;6.32;1.77;;;16.90;66.30;;;;;;4918113;29;20040;-70
2022/09/07 02:59:52;;;;;;;2.67;1.80;;;16.90;65.60;;;;;;4918318;29;20054;-70
2022/09/07 03:02:34;;;;;;;3.05;1.60;;;16.80;65.70;;;;;;4916886;29;20103;-70
2022/09/07 03:05:16;;;;;;;5.72;1.80;;;16.80;66.00;;;;;;4923304;29;20067;-69
2022/09/07 03:07:51;;;;;;;4.07;1.98;;;16.70;65.60;;;;;;4919646;29;20032;-71
2022/09/07 03:10:17;;;;;;;3.78;1.55;;;16.70;65.30;;;;;;4920985;29;20040;-70
2022/09/07 03:12:47;;;;;;;4.28;1.38;;;16.60;65.40;;;;;;4920709;29;20135;-69
2022/09/07 03:15:24;;;;;;;3.42;1.70;;;16.60;64.50;;;;;;4918228;29;20102;-70
2022/09/07 03:17:50;;;;;;;2.20;1.50;;;16.60;65.20;;;;;;4917033;29;20696;-71
2022/09/07 03:20:17;;;;;;;3.30;1.55;;;16.60;65.40;;;;;;4920261;29;20037;-70
2022/09/07 03:22:44;;;;;;;3.47;1.60;;;16.70;65.70;;;;;;4920495;29;20032;-70
2022/09/07 03:25:11;;;;;;;3.92;1.90;;;16.70;65.90;;;;;;4922789;29;20071;-70
2022/09/07 03:27:37;;;;;;;5.55;1.67;;;16.60;65.00;;;;;;4922966;29;20476;-70
2022/09/07 03:30:04;;;;;;;3.40;2.00;;;16.60;64.70;;;;;;4919831;29;20028;-71
2022/09/07 03:32:35;;;;;;;2.85;1.40;;;16.70;65.20;;;;;;4920794;29;20119;-70
2022/09/07 03:35:02;;;;;;;3.17;1.33;;;16.70;65.70;;;;;;4917201;29;20040;-70
2022/09/07 03:37:28;;;;;;;2.17;1.50;;;16.60;66.10;;;;;;4922275;29;20749;-71
2022/09/07 03:39:54;;;;;;;2.92;1.50;;;16.60;65.30;;;;;;4914636;29;20047;-71
2022/09/07 03:42:20;;;;;;;3.42;1.42;;;16.60;65.50;;;;;;4923179;29;20047;-71
2022/09/07 03:44:48;;;;;;;4.38;2.10;;;16.60;65.30;;;;;;4923400;29;20051;-70
2022/09/07 03:47:14;;;;;;;2.92;1.83;;;16.60;65.90;;;;;;4920923;29;20040;-71
2022/09/07 03:49:40;;;;;;;5.45;1.90;;;16.50;66.50;;;;;;4921327;29;20032;-71
2022/09/07 03:52:05;;;;;;;3.10;1.70;;;16.50;66.90;;;;;;4916229;29;20040;-70
2022/09/07 03:54:31;;;;;;;2.60;1.65;;;16.50;66.80;;;;;;4919630;29;20043;-69
2022/09/07 03:56:57;;;;;;;3.08;1.90;;;16.40;66.60;;;;;;4916112;29;20507;-71
2022/09/07 03:59:23;;;;;;;3.10;1.60;;;16.40;66.90;;;;;;4917075;29;20031;-70
2022/09/07 04:01:48;;;;;;;2.47;1.48;;;16.40;67.20;;;;;;4924078;29;20040;-69
2022/09/07 04:04:14;;;;;;;3.28;1.65;;;16.30;67.20;;;;;;4921928;29;20063;-69
2022/09/07 04:06:40;;;;;;;3.10;1.60;;;16.30;67.40;;;;;;4924243;29;20563;-70
2022/09/07 04:09:09;;;;;;;2.60;1.80;;;16.30;67.10;;;;;;4923559;29;20480;-70
2022/09/07 04:11:35;;;;;;;2.67;1.50;;;16.30;67.80;;;;;;4924168;29;20035;-69
2022/09/07 04:14:00;;;;;;;5.95;2.00;;;16.30;67.80;;;;;;4920066;29;20042;-70
2022/09/07 04:16:27;;;;;;;2.50;1.70;;;16.30;67.50;;;;;;4922266;29;20625;-70
2022/09/07 04:18:53;;;;;;;3.35;1.90;;;16.30;67.20;;;;;;4921460;29;20712;-70
2022/09/07 04:21:21;;;;;;;5.45;1.80;;;16.40;67.50;;;;;;4927021;29;20038;-70
2022/09/07 04:23:47;;;;;;;4.28;1.90;;;16.40;67.10;;;;;;4925651;28;20074;-70
2022/09/07 04:26:22;;;;;;;4.80;1.73;;;16.40;67.20;;;;;;4923381;28;20079;-70
2022/09/07 04:28:49;;;;;;;7.00;1.87;;;16.40;67.20;;;;;;4922161;29;20032;-69
2022/09/07 04:31:17;;;;;;;3.45;2.00;;;16.40;67.30;;;;;;4921302;29;20108;-69
2022/09/07 04:33:46;;;;;;;3.33;2.00;;;16.30;67.00;;;;;;4920512;29;20036;-69
2022/09/07 04:36:12;;;;;;;2.42;1.67;;;16.40;67.10;;;;;;4919155;29;20066;-69
2022/09/07 04:38:38;;;;;;;3.00;1.88;;;16.40;66.60;;;;;;4927723;29;20035;-69
2022/09/07 04:41:15;;;;;;;6.38;1.70;;;16.40;66.90;;;;;;4925900;29;20060;-70
2022/09/07 04:43:42;;;;;;;4.90;1.98;;;16.40;66.60;;;;;;4925722;29;20032;-69
2022/09/07 04:46:20;;;;;;;5.57;1.83;;;16.40;66.60;;;;;;4923350;29;20043;-69
2022/09/07 04:48:51;;;;;;;3.85;1.70;;;16.40;67.50;;;;;;4922535;29;20043;-69
2022/09/07 04:51:17;;;;;;;3.97;1.70;;;16.50;66.80;;;;;;4921442;29;20831;-70
2022/09/07 04:53:46;;;;;;;2.63;1.65;;;16.50;65.90;;;;;;4920231;29;20054;-70
2022/09/07 04:56:11;;;;;;;3.38;1.70;;;16.50;66.00;;;;;;4922810;29;20035;-69
2022/09/07 04:58:37;;;;;;;3.10;1.70;;;16.50;66.40;;;;;;4927498;29;20034;-69
2022/09/07 05:01:05;;;;;;;3.75;1.70;;;16.50;66.90;;;;;;4939519;28;20724;-70
2022/09/07 05:03:33;;;;;;;3.65;1.80;;;16.60;66.80;;;;;;4927604;29;20031;-70
2022/09/07 05:06:01;;;;;;;5.03;1.80;;;16.60;66.70;;;;;;4922014;29;20043;-69
2022/09/07 05:08:27;;;;;;;6.18;1.90;;;16.60;66.50;;;;;;4923337;29;20036;-69
2022/09/07 05:10:54;;;;;;;2.05;1.60;;;16.60;66.40;;;;;;4922932;29;20047;-68
2022/09/07 05:13:20;;;;;;;3.53;1.73;;;16.60;66.40;;;;;;4923602;29;20046;-70
2022/09/07 05:15:46;;;;;;;4.15;1.85;;;16.60;66.40;;;;;;4928256;29;20039;-69
2022/09/07 05:18:12;;;;;;;3.45;1.67;;;16.70;66.50;;;;;;4925778;29;20119;-69
2022/09/07 05:20:39;;;;;;;3.28;1.88;;;16.70;67.00;;;;;;4925637;28;20508;-69
2022/09/07 05:23:05;;;;;;;3.63;1.77;;;16.70;66.50;;;;;;4922366;29;20119;-68
2022/09/07 05:25:31;;;;;;;5.15;2.00;;;16.70;66.70;;;;;;4923466;29;20110;-69
2022/09/07 05:27:57;;;;;;;5.97;1.80;;;16.70;66.80;;;;;;4918607;29;20035;-68
2022/09/07 05:30:23;;;;;;;4.28;1.80;;;16.70;66.00;;;;;;4921113;29;20086;-69
2022/09/07 05:32:50;;;;;;;7.97;2.08;;;16.80;66.40;;;;;;4917501;29;20448;-69
2022/09/07 05:35:17;;;;;;;3.53;1.90;;;16.80;66.80;;;;;;4925297;29;20056;-69
2022/09/07 05:37:48;;;;;;;2.65;1.85;;;16.80;66.50;;;;;;4926079;29;20028;-68
2022/09/07 05:40:14;;;;;;;8.32;1.85;;;16.80;66.60;;;;;;4923517;29;20024;-69
2022/09/07 05:42:40;;;;;;;3.90;1.70;;;16.90;66.60;;;;;;4923161;28;20118;-69
2022/09/07 05:45:07;;;;;;;4.75;2.08;;;16.90;67.00;;;;;;4920321;29;20048;-70
2022/09/07 05:47:33;;;;;;;3.78;2.03;;;16.90;66.50;;;;;;4921922;29;20065;-69
2022/09/07 05:49:58;;;;;;;5.90;2.00;;;17.00;66.70;;;;;;4917464;29;20125;-70
2022/09/07 05:52:24;;;;;;;7.20;2.17;;;17.10;66.90;;;;;;4919137;29;20070;-69
2022/09/07 05:54:50;;;;;;;4.10;2.00;;;17.10;67.10;;;;;;4926222;29;20032;-69
2022/09/07 05:57:16;;;;;;;5.95;2.40;;;17.10;67.20;;;;;;4927262;29;20114;-68
2022/09/07 05:59:42;;;;;;;7.10;2.13;;;17.10;66.90;;;;;;4922961;29;20496;-69
2022/09/07 06:02:13;;;;;;;8.18;2.42;;;17.10;66.50;;;;;;4921052;29;20075;-68
2022/09/07 06:04:39;;;;;;;5.88;2.00;;;17.20;66.40;;;;;;4921122;29;20043;-69
2022/09/07 06:07:04;;;;;;;4.35;2.25;;;17.30;66.50;;;;;;4918388;29;20032;-69
2022/09/07 06:09:30;;;;;;;5.93;2.33;;;17.40;66.30;;;;;;4920339;29;20050;-69
2022/09/07 06:11:56;;;;;;;8.00;2.25;;;17.50;65.70;;;;;;4918545;29;20047;-69
2022/09/07 06:14:21;;;;;;;7.60;2.10;;;17.50;66.00;;;;;;4924811;29;20036;-69
2022/09/07 06:16:47;;;;;;;9.35;3.13;;;17.60;66.00;;;;;;4924309;29;20048;-69
2022/09/07 06:19:13;;;;;;;6.72;2.13;;;17.60;65.70;;;;;;4921796;29;20040;-69
2022/09/07 06:21:39;;;;;;;7.60;2.30;;;17.60;65.60;;;;;;4923462;29;20024;-70
2022/09/07 06:24:05;;;;;;;7.75;2.50;;;17.60;65.00;;;;;;4918022;29;20055;-70
2022/09/07 06:26:31;;;;;;;6.90;2.70;;;17.60;65.80;;;;;;4919774;29;20586;-69
2022/09/07 06:28:56;;;;;;;4.80;2.70;;;17.60;65.90;;;;;;4918756;29;20036;-70
2022/09/07 06:31:23;;;;;;;4.70;2.30;;;17.70;66.00;;;;;;4921332;29;20035;-69
2022/09/07 06:33:50;;;;;;;5.78;2.63;;;17.70;66.10;;;;;;4924417;29;20050;-68
2022/09/07 06:36:21;;;;;;;4.90;2.25;;;17.70;65.90;;;;;;4922171;29;20075;-69
2022/09/07 06:38:48;;;;;;;10.48;2.63;;;17.80;66.70;;;;;;4920536;29;20408;-70
2022/09/07 06:41:20;;;;;;;7.15;2.85;;;17.80;66.20;;;;;;4921280;29;20034;-69
2022/09/07 06:43:46;;;;;;;5.03;2.53;;;18.00;66.30;;;;;;4919106;29;20543;-69
2022/09/07 06:46:12;;;;;;;5.38;2.50;;;18.10;66.20;;;;;;4917686;29;20032;-69
2022/09/07 06:48:38;;;;;;;9.65;3.13;;;18.30;65.90;;;;;;4918860;29;20042;-69
2022/09/07 06:51:12;;;;;;;4.00;2.17;;;18.40;65.70;;;;;;4924990;29;20031;-69
2022/09/07 06:53:38;;;;;;;5.38;2.88;;;18.50;65.60;;;;;;4923827;29;20039;-70
2022/09/07 06:56:06;;;;;;;5.50;2.70;;;18.60;65.00;;;;;;4921550;29;20038;-69
2022/09/07 06:58:33;;;;;;;4.20;2.60;;;18.70;63.70;;;;;;4921575;29;20500;-69
2022/09/07 07:01:11;;;;;;;4.63;2.25;;;18.80;64.20;;;;;;4918981;29;20049;-69
2022/09/07 07:03:37;;;;;;;5.10;2.53;;;18.80;64.80;;;;;;4920989;29;20134;-70
2022/09/07 07:06:04;;;;;;;6.13;2.65;;;18.80;64.60;;;;;;4916055;29;20464;-69
2022/09/07 07:08:30;;;;;;;4.97;2.50;;;18.90;64.90;;;;;;4922101;29;20369;-71
2022/09/07 07:11:05;;;;;;;3.38;2.30;;;18.90;65.00;;;;;;4924385;29;20035;-69
2022/09/07 07:13:30;;;;;;;4.78;2.75;;;18.90;64.70;;;;;;4923509;29;20032;-69
2022/09/07 07:16:09;;;;;;;4.10;3.03;;;18.90;64.20;;;;;;4919833;29;20034;-69
2022/09/07 07:18:35;;;;;;;5.45;2.90;;;18.80;64.60;;;;;;4918936;29;20028;-69
2022/09/07 07:21:03;;;;;;;5.78;2.30;;;18.80;65.10;;;;;;4918129;28;20042;-69
2022/09/07 07:23:29;;;;;;;5.75;2.58;;;19.00;65.00;;;;;;4918729;29;20071;-69
2022/09/07 07:25:55;;;;;;;6.40;2.70;;;19.20;64.30;;;;;;4915351;29;20131;-69
2022/09/07 07:28:24;;;;;;;10.20;2.90;;;19.50;64.10;;;;;;4924397;29;20508;-69
2022/09/07 07:30:57;;;;;;;12.27;2.95;;;19.60;63.40;;;;;;4923621;29;20042;-69
2022/09/07 07:33:24;;;;;;;6.57;2.95;;;19.60;63.50;;;;;;4921938;29;20114;-70
2022/09/07 07:35:50;;;;;;;5.28;2.95;;;19.70;63.80;;;;;;4920547;29;20816;-70
2022/09/07 07:38:15;;;;;;;6.20;2.95;;;19.80;63.60;;;;;;4919216;29;20062;-69
2022/09/07 07:40:41;;;;;;;10.52;3.10;;;19.80;63.10;;;;;;4921167;28;20480;-70
2022/09/07 07:43:07;;;;;;;8.45;2.88;;;19.80;63.60;;;;;;4922092;29;20122;-69
2022/09/07 07:45:33;;;;;;;6.78;2.72;;;19.90;63.50;;;;;;4936063;28;20032;-69
2022/09/07 07:47:59;;;;;;;8.02;2.92;;;20.00;64.50;;;;;;4930107;29;20050;-69
2022/09/07 07:50:24;;;;;;;8.52;2.85;;;20.00;63.90;;;;;;4929222;29;20039;-69
2022/09/07 07:52:50;;;;;;;7.45;3.33;;;20.10;63.40;;;;;;4927880;29;20181;-68
2022/09/07 07:55:16;;;;;;;8.98;3.45;;;20.20;63.20;;;;;;4926147;29;20036;-69
2022/09/07 07:57:42;;;;;;;8.00;3.10;;;20.40;63.70;;;;;;4926570;29;20499;-69
2022/09/07 08:00:08;;;;;;;7.75;3.13;;;20.50;63.90;;;;;;4923205;29;20036;-69
2022/09/07 08:02:37;;;;;;;4.20;2.85;;;20.60;64.30;;;;;;4923531;29;20032;-69
2022/09/07 08:05:02;;;;;;;10.73;3.47;;;20.70;64.30;;;;;;4925619;29;20057;-69
2022/09/07 08:07:28;;;;;;;5.63;3.17;;;20.70;63.10;;;;;;4930429;29;20110;-69
2022/09/07 08:09:54;;;;;;;7.88;2.85;;;20.70;62.90;;;;;;4928821;29;20101;-69
2022/09/07 08:12:20;;;;;;;6.68;3.45;;;20.80;63.30;;;;;;4927182;29;20043;-69
2022/09/07 08:14:46;;;;;;;8.57;3.20;;;20.90;63.80;;;;;;4928808;29;20036;-69
2022/09/07 08:17:14;;;;;;;5.78;3.03;;;21.00;63.50;;;;;;4924360;29;20131;-69
2022/09/07 08:19:40;;;;;;;6.20;3.30;;;20.90;62.90;;;;;;4924366;29;20039;-68
2022/09/07 08:22:08;;;;;;;5.32;3.72;;;21.00;63.50;;;;;;4921820;29;20036;-69
2022/09/07 08:24:33;;;;;;;6.22;3.72;;;21.10;63.70;;;;;;4926662;29;20046;-70
2022/09/07 08:26:59;;;;;;;4.78;3.20;;;21.20;63.80;;;;;;4929363;29;20036;-70
2022/09/07 08:29:25;;;;;;;6.47;3.13;;;21.30;63.60;;;;;;4928400;29;20032;-69
2022/09/07 08:31:51;;;;;;;5.63;3.03;;;21.30;62.30;;;;;;4926846;28;20035;-70
2022/09/07 08:34:17;;;;;;;6.28;3.70;;;21.40;62.90;;;;;;4925595;29;20619;-69
2022/09/07 08:36:43;;;;;;;5.28;3.65;;;21.40;64.50;;;;;;4925694;29;20039;-69
2022/09/07 08:39:09;;;;;;;7.00;3.40;;;21.60;63.40;;;;;;4922801;29;20091;-72
2022/09/07 08:41:43;;;;;;;11.93;3.75;;;21.70;63.80;;;;;;4927429;29;20083;-71
2022/09/07 08:44:20;;;;;;;7.88;3.88;;;21.70;63.20;;;;;;4926743;29;20464;-69
2022/09/07 08:46:55;;;;;;;8.50;3.53;;;21.90;62.70;;;;;;4928812;29;20519;-69
2022/09/07 08:50:11;;;;;;;8.53;3.93;;;21.90;62.70;;;;;;4927256;29;20512;-70
2022/09/07 08:52:55;;;;;;;5.93;3.90;;;22.00;62.70;;;;;;4911785;29;20291;-69
2022/09/07 08:55:42;;;;;;;8.82;4.07;;;22.00;62.70;;;;;;4924173;29;20768;-69
2022/09/07 08:58:07;;;;;;;;;;;22.20;63.40;;;;;;4922503;29;20193;-69
2022/09/07 09:00:34;;;;;;;6.23;3.60;;;22.40;62.10;;;;;;4920441;29;19960;-69
2022/09/07 09:03:01;;;;;;;7.75;3.60;;;22.50;62.50;;;;;;4926898;29;20043;-69
2022/09/07 09:05:36;;;;;;;7.30;4.30;;;22.50;62.30;;;;;;4926412;29;20114;-69
2022/09/07 09:08:56;;;;;;;7.18;3.80;;;22.70;62.20;;;;;;4925037;29;20122;-70
2022/09/07 09:11:49;;;;;;;6.05;4.15;;;22.80;62.00;;;;;;4940153;29;20826;-69
2022/09/07 09:14:36;;;;;;;5.93;3.80;;;22.90;61.10;;;;;;4921899;29;20135;-70
2022/09/07 09:17:26;;;;;;;9.15;4.15;;;22.90;61.60;;;;;;4918457;29;20493;-69
2022/09/07 09:20:10;;;;;;;9.68;3.80;;;23.00;62.70;;;;;;4923532;29;20741;-69
2022/09/07 09:22:37;;;;;;;7.82;4.28;;;23.10;61.00;;;;;;4927332;29;20035;-70
2022/09/07 09:25:19;;;;;;;6.40;4.00;;;23.20;62.00;;;;;;4925788;29;20032;-69
2022/09/07 09:27:48;;;;;;;9.48;3.72;;;23.30;61.10;;;;;;4922723;29;20171;-69
2022/09/07 09:30:18;;;;;;;10.48;4.38;;;23.40;60.30;;;;;;4922206;29;20036;-69
2022/09/07 09:32:46;;;;;;;4.72;4.13;;;23.70;62.70;;;;;;4921075;29;20035;-69
2022/09/07 09:35:17;;;;;;;10.23;3.67;;;23.80;60.80;;;;;;4917671;29;20532;-69
2022/09/07 09:37:43;;;;;;;6.45;4.25;;;23.80;60.40;;;;;;4917969;29;20030;-69
2022/09/07 09:40:22;;;;;;;6.60;3.50;;;23.80;58.50;;;;;;4924061;29;20028;-69
2022/09/07 09:43:04;;;;;;;10.50;3.92;;;23.80;60.40;;;;;;4924926;28;20074;-69
2022/09/07 09:45:34;;;;;;;7.47;3.60;;;23.80;60.10;;;;;;4921990;29;20139;-69
2022/09/07 09:48:07;;;;;;;6.70;4.30;;;23.90;60.10;;;;;;4920681;29;20559;-69
2022/09/07 09:50:39;;;;;;;9.52;4.20;;;23.90;59.80;;;;;;4920624;29;20114;-70
2022/09/07 09:53:14;;;;;;;9.38;4.38;;;24.00;59.70;;;;;;4917764;29;20055;-70
2022/09/07 09:55:41;;;;;;;11.35;4.40;;;24.00;59.50;;;;;;4918912;29;20074;-70
2022/09/07 09:58:30;;;;;;;6.63;4.18;;;23.90;59.90;;;;;;4919760;29;20036;-69
2022/09/07 10:01:05;;;;;;;11.98;4.43;;;23.90;61.00;;;;;;4921917;29;20045;-69
2022/09/07 10:03:33;;;;;;;10.88;4.60;;;23.90;60.80;;;;;;4924695;29;20400;-70
2022/09/07 10:06:07;;;;;;;6.45;3.90;;;23.90;61.30;;;;;;4921101;29;20118;-69
2022/09/07 10:08:35;;;;;;;5.75;4.20;;;23.90;61.60;;;;;;4921832;29;20036;-70
2022/09/07 10:11:04;;;;;;;8.13;4.35;;;23.90;61.30;;;;;;4918358;29;20708;-69
2022/09/07 10:13:42;;;;;;;10.52;3.95;;;23.90;61.90;;;;;;4919916;28;20042;-69
2022/09/07 10:16:10;;;;;;;8.93;4.93;;;23.90;61.60;;;;;;4930917;29;20040;-69
2022/09/07 10:18:52;;;;;;;6.15;3.95;;;23.90;61.10;;;;;;4925498;29;20118;-69
2022/09/07 10:21:23;;;;;;;6.32;4.03;;;23.90;61.70;;;;;;4923656;29;20128;-70
2022/09/07 10:23:57;;;;;;;6.55;4.20;;;23.90;61.70;;;;;;4920950;29;20110;-69
2022/09/07 10:26:34;;;;;;;5.32;4.05;;;23.90;61.20;;;;;;4924010;29;20039;-69
2022/09/07 10:29:18;;;;;;;6.20;3.78;;;23.90;62.00;;;;;;4921716;29;20041;-69
2022/09/07 10:32:18;;;;;;;6.57;4.15;;;24.00;61.90;;;;;;4920027;29;20036;-69
2022/09/07 10:35:01;;;;;;;8.50;3.83;;;23.90;61.30;;;;;;4918827;29;20039;-71
2022/09/07 10:37:51;;;;;;;8.10;4.03;;;23.80;61.40;;;;;;4922283;29;20032;-69
2022/09/07 10:40:24;;;;;;;6.97;4.32;;;23.90;61.60;;;;;;4923547;29;20032;-70
2022/09/07 10:43:05;;;;;;;8.35;4.40;;;23.90;61.40;;;;;;4920740;29;20743;-69
2022/09/07 10:45:51;;;;;;;5.85;4.70;;;23.90;61.80;;;;;;4919244;29;20086;-69
2022/09/07 10:48:28;;;;;;;11.63;4.63;;;23.80;62.00;;;;;;4919804;29;20077;-69
2022/09/07 10:50:58;;;;;;;8.18;3.97;;;23.80;62.40;;;;;;4917552;29;20412;-70
2022/09/07 10:53:36;;;;;;;8.43;5.00;;;23.80;63.10;;;;;;4918484;29;20036;-69
2022/09/07 10:56:08;;;;;;;6.93;4.60;;;23.90;62.80;;;;;;4920481;29;20500;-69
2022/09/07 10:58:35;;;;;;;7.57;4.78;;;23.90;63.30;;;;;;4924163;29;20126;-69
2022/09/07 11:01:24;;;;;;;7.72;4.38;;;23.90;63.10;;;;;;4921982;29;20028;-69
2022/09/07 11:04:09;;;;;;;7.38;4.75;;;24.00;63.00;;;;;;4922148;29;20535;-69
2022/09/07 11:06:42;;;;;;;7.88;4.47;;;24.10;62.50;;;;;;4919074;29;20051;-69
2022/09/07 11:09:35;;;;;;;7.50;4.43;;;24.10;62.70;;;;;;4917354;29;20036;-69
2022/09/07 11:12:14;;;;;;;6.15;4.25;;;24.10;62.50;;;;;;4914840;29;20067;-70
2022/09/07 11:15:02;;;;;;;7.18;4.28;;;24.20;62.60;;;;;;4925308;29;20058;-69
2022/09/07 11:17:29;;;;;;;8.07;4.57;;;24.20;62.30;;;;;;4923571;29;20051;-69
2022/09/07 11:20:22;;;;;;;6.97;5.05;;;24.30;62.80;;;;;;4922146;29;20763;-69
2022/09/07 11:23:11;;;;;;;6.18;4.57;;;24.30;62.40;;;;;;4919693;29;20042;-69
2022/09/07 11:26:02;;;;;;;6.00;4.72;;;24.30;62.50;;;;;;4919201;29;20039;-70
2022/09/07 11:28:49;;;;;;;7.82;5.13;;;24.30;62.40;;;;;;4918866;28;20127;-69
2022/09/07 11:31:36;;;;;;;9.27;4.47;;;24.40;61.90;;;;;;4915871;29;20040;-70
2022/09/07 11:34:04;;;;;;;7.95;4.88;;;24.30;62.40;;;;;;4921449;29;20035;-69
2022/09/07 11:36:35;;;;;;;8.52;4.72;;;24.40;62.90;;;;;;4921793;29;20126;-69
2022/09/07 11:39:13;;;;;;;8.55;4.93;;;24.30;62.80;;;;;;4920655;29;20138;-69
2022/09/07 11:41:46;;;;;;;8.95;4.75;;;24.30;63.10;;;;;;4921549;29;20480;-69
2022/09/07 11:44:24;;;;;;;8.07;4.63;;;24.30;63.20;;;;;;4917309;29;20131;-70
2022/09/07 11:46:53;;;;;;;6.13;5.30;;;24.40;63.40;;;;;;4917104;29;20782;-69
2022/09/07 11:49:20;;;;;;;6.82;4.75;;;24.40;62.20;;;;;;4917198;29;20115;-70
2022/09/07 11:52:28;;;;;;;9.00;5.43;;;24.50;62.30;;;;;;4921107;29;20098;-70
2022/09/07 11:55:02;;;;;;;7.97;5.18;;;24.60;62.90;;;;;;4920778;29;20039;-70
2022/09/07 11:58:08;;;;;;;5.25;4.68;;;24.70;62.40;;;;;;4916649;29;20035;-69
2022/09/07 12:00:58;;;;;;;6.68;4.75;;;24.70;62.90;;;;;;4839349;29;20128;-70
2022/09/07 12:03:36;;;;;;;11.25;5.85;;;24.80;62.80;;;;;;4921416;29;20040;-70
2022/09/07 12:06:38;;;;;;;10.75;5.18;;;24.80;62.40;;;;;;4914609;29;20126;-70
2022/09/07 12:09:31;;;;;;;9.68;5.03;;;24.80;62.90;;;;;;4913396;29;20044;-70
2022/09/07 12:12:19;;;;;;;5.55;4.90;;;24.70;63.00;;;;;;4920601;29;20036;-70
2022/09/07 12:15:08;;;;;;;5.72;5.10;;;24.50;63.70;;;;;;4919532;29;20036;-69
2022/09/07 12:17:53;;;;;;;7.07;5.05;;;24.50;64.00;;;;;;4920320;29;20079;-69
2022/09/07 12:20:24;;;;;;;5.75;4.93;;;24.50;64.20;;;;;;4919706;29;20040;-70
2022/09/07 12:22:56;;;;;;;6.07;4.72;;;24.50;64.30;;;;;;4918010;29;20027;-70
2022/09/07 12:25:22;;;;;;;8.23;5.03;;;24.50;64.40;;;;;;4917520;29;20109;-71
2022/09/07 12:27:49;;;;;;;7.82;5.40;;;24.50;63.80;;;;;;4916501;28;20839;-70
2022/09/07 12:30:17;;;;;;;5.95;4.85;;;24.60;63.60;;;;;;4926583;29;20039;-70
2022/09/07 12:32:46;;;;;;;9.50;5.70;;;24.70;63.70;;;;;;4926354;29;20493;-70
2022/09/07 12:35:32;;;;;;;10.27;5.72;;;24.80;63.90;;;;;;4924244;29;20130;-70
2022/09/07 12:38:30;;;;;;;6.70;4.80;;;24.80;63.80;;;;;;4922422;29;20048;-70
2022/09/07 12:41:21;;;;;;;12.95;5.60;;;24.90;63.60;;;;;;4922734;29;20039;-71
2022/09/07 12:43:47;;;;;;;11.00;4.93;;;25.00;63.90;;;;;;4921563;29;20036;-70
2022/09/07 12:46:31;;;;;;;5.40;4.90;;;25.10;62.30;;;;;;4919295;29;20070;-70
2022/09/07 12:49:10;;;;;;;7.60;5.15;;;25.10;62.10;;;;;;4924746;29;20077;-70
2022/09/07 12:51:38;;;;;;;6.00;5.15;;;25.10;62.10;;;;;;4926777;28;20118;-70
2022/09/07 12:54:38;;;;;;;6.72;4.70;;;25.10;62.40;;;;;;4924993;29;20039;-71
2022/09/07 12:57:15;;;;;;;8.65;5.30;;;25.20;63.00;;;;;;4922693;29;20381;-71
2022/09/07 13:00:03;;;;;;;7.10;5.75;;;25.10;62.90;;;;;;4922242;29;20047;-71
2022/09/07 13:03:01;;;;;;;7.10;4.95;;;25.10;62.50;;;;;;4921388;29;20451;-70
2022/09/07 13:05:36;;;;;;;7.30;5.10;;;25.00;62.90;;;;;;4920657;28;20032;-71
2022/09/07 13:08:30;;;;;;;8.37;5.40;;;25.00;63.30;;;;;;4923637;29;20130;-70
2022/09/07 13:11:33;;;;;;;6.78;5.10;;;25.00;63.40;;;;;;4923209;29;20031;-71
2022/09/07 13:14:13;;;;;;;8.10;5.15;;;25.00;63.90;;;;;;4925258;29;20425;-69